sensor_id;sensor_type;location;lat;lon;timestamp;pressure;altitude;pressure_sealevel;temperature;humidity
13869;BME280;7004;48.206;16.402;2022-10-16T00:01:17;99955.03;;;10.67;100.00
13869;BME280;7004;48.206;16.402;2022-10-16T00:03:44;99950.69;;;10.81;100.00
13869;BME280;7004;48.206;16.402;2022-10-16T00:06:12;99945.28;;;10.68;100.00
13869;BME280;7004;48.206;16.402;2022-10-16T00:08:39;99956.25;;;10.76;100.00
13869;BME280;7004;48.206;16.402;2022-10-16T00:11:12;99954.47;;;10.77;100.00
13869;BME280;7004;48.206;16.402;2022-10-16T00:13:41;99954.28;;;10.80;100.00
13869;BME280;7004;48.206;16.402;2022-10-16T00:16:08;99948.25;;;10.78;100.00
13869;BME280;7004;48.206;16.402;2022-10-16T00:18:35;99955.97;;;10.66;100.00
13869;BME280;7004;48.206;16.402;2022-10-16T00:21:06;99950.84;;;10.63;100.00
13869;BME280;7004;48.206;16.402;2022-10-16T00:23:33;99963.03;;;10.66;100.00
13869;BME280;7004;48.206;16.402;2022-10-16T00:26:07;99956.50;;;10.57;100.00
13869;BME280;7004;48.206;16.402;2022-10-16T00:28:34;99969.53;;;10.46;100.00
13869;BME280;7004;48.206;16.402;2022-10-16T00:31:10;99950.91;;;10.47;100.00
13869;BME280;7004;48.206;16.402;2022-10-16T00:33:38;99956.00;;;10.50;100.00
13869;BME280;7004;48.206;16.402;2022-10-16T00:36:07;99958.25;;;10.42;100.00
13869;BME280;7004;48.206;16.402;2022-10-16T00:38:34;99954.06;;;10.54;100.00
13869;BME280;7004;48.206;16.402;2022-10-16T00:41:00;99957.75;;;10.52;100.00
13869;BME280;7004;48.206;16.402;2022-10-16T00:43:47;99959.88;;;10.45;100.00
13869;BME280;7004;48.206;16.402;2022-10-16T00:46:32;99965.97;;;10.61;100.00
13869;BME280;7004;48.206;16.402;2022-10-16T00:51:40;99971.78;;;10.52;100.00
13869;BME280;7004;48.206;16.402;2022-10-16T00:54:25;99974.81;;;10.46;100.00
13869;BME280;7004;48.206;16.402;2022-10-16T00:56:54;99979.25;;;10.45;100.00
13869;BME280;7004;48.206;16.402;2022-10-16T00:59:37;99975.91;;;10.42;100.00
13869;BME280;7004;48.206;16.402;2022-10-16T01:02:06;99981.97;;;10.44;100.00
13869;BME280;7004;48.206;16.402;2022-10-16T01:04:50;99979.34;;;10.44;100.00
13869;BME280;7004;48.206;16.402;2022-10-16T01:07:37;99974.41;;;10.38;100.00
13869;BME280;7004;48.206;16.402;2022-10-16T01:13:17;99980.28;;;10.43;100.00
13869;BME280;7004;48.206;16.402;2022-10-16T01:16:24;99964.91;;;10.49;100.00
13869;BME280;7004;48.206;16.402;2022-10-16T01:19:39;99961.94;;;10.40;100.00
13869;BME280;7004;48.206;16.402;2022-10-16T01:22:10;99968.09;;;10.40;100.00
13869;BME280;7004;48.206;16.402;2022-10-16T01:24:48;99972.97;;;10.32;100.00
13869;BME280;7004;48.206;16.402;2022-10-16T01:30:24;99974.59;;;10.19;100.00
13869;BME280;7004;48.206;16.402;2022-10-16T01:33:10;99972.75;;;10.51;100.00
13869;BME280;7004;48.206;16.402;2022-10-16T01:35:50;99962.38;;;10.48;100.00
13869;BME280;7004;48.206;16.402;2022-10-16T01:38:36;99975.34;;;10.37;100.00
13869;BME280;7004;48.206;16.402;2022-10-16T01:41:15;99975.59;;;10.32;100.00
13869;BME280;7004;48.206;16.402;2022-10-16T01:46:30;99967.16;;;10.41;100.00
13869;BME280;7004;48.206;16.402;2022-10-16T01:49:01;99971.59;;;10.25;100.00
13869;BME280;7004;48.206;16.402;2022-10-16T01:51:29;99970.44;;;10.15;100.00
13869;BME280;7004;48.206;16.402;2022-10-16T01:53:59;99975.22;;;10.08;100.00
13869;BME280;7004;48.206;16.402;2022-10-16T01:56:27;99977.84;;;10.08;100.00
13869;BME280;7004;48.206;16.402;2022-10-16T01:59:07;99979.97;;;10.17;100.00
13869;BME280;7004;48.206;16.402;2022-10-16T02:01:39;99980.91;;;10.16;100.00
13869;BME280;7004;48.206;16.402;2022-10-16T02:05:12;99968.00;;;10.26;100.00
13869;BME280;7004;48.206;16.402;2022-10-16T02:07:19;99982.25;;;10.23;100.00
13869;BME280;7004;48.206;16.402;2022-10-16T02:09:45;99977.16;;;10.20;100.00
13869;BME280;7004;48.206;16.402;2022-10-16T02:12:31;99982.44;;;10.20;100.00
13869;BME280;7004;48.206;16.402;2022-10-16T02:14:58;99981.47;;;10.21;100.00
13869;BME280;7004;48.206;16.402;2022-10-16T02:17:44;99976.22;;;10.05;100.00
13869;BME280;7004;48.206;16.402;2022-10-16T02:20:11;99983.91;;;10.10;100.00
13869;BME280;7004;48.206;16.402;2022-10-16T02:22:46;99982.88;;;10.28;100.00
13869;BME280;7004;48.206;16.402;2022-10-16T02:25:35;99982.31;;;10.22;100.00
13869;BME280;7004;48.206;16.402;2022-10-16T02:28:22;99991.75;;;10.27;100.00
13869;BME280;7004;48.206;16.402;2022-10-16T02:31:04;99993.44;;;10.28;100.00
13869;BME280;7004;48.206;16.402;2022-10-16T02:33:33;99983.50;;;10.48;100.00
13869;BME280;7004;48.206;16.402;2022-10-16T02:36:02;99985.84;;;10.38;100.00
13869;BME280;7004;48.206;16.402;2022-10-16T02:38:29;99979.91;;;10.49;100.00
13869;BME280;7004;48.206;16.402;2022-10-16T02:40:56;99990.09;;;10.41;100.00
13869;BME280;7004;48.206;16.402;2022-10-16T02:43:22;99988.47;;;10.38;100.00
13869;BME280;7004;48.206;16.402;2022-10-16T02:45:51;100002.16;;;10.45;100.00
13869;BME280;7004;48.206;16.402;2022-10-16T02:48:17;99995.50;;;10.54;100.00
13869;BME280;7004;48.206;16.402;2022-10-16T02:50:43;100001.31;;;10.44;100.00
13869;BME280;7004;48.206;16.402;2022-10-16T02:53:11;100005.25;;;10.37;100.00
13869;BME280;7004;48.206;16.402;2022-10-16T02:55:37;100003.81;;;10.32;100.00
13869;BME280;7004;48.206;16.402;2022-10-16T02:58:03;100003.19;;;10.26;100.00
13869;BME280;7004;48.206;16.402;2022-10-16T03:00:29;100004.34;;;10.22;100.00
13869;BME280;7004;48.206;16.402;2022-10-16T03:02:55;99998.19;;;10.22;100.00
13869;BME280;7004;48.206;16.402;2022-10-16T03:05:22;100007.63;;;10.26;100.00
13869;BME280;7004;48.206;16.402;2022-10-16T03:07:48;100003.63;;;10.19;100.00
13869;BME280;7004;48.206;16.402;2022-10-16T03:10:14;99991.38;;;10.18;100.00
13869;BME280;7004;48.206;16.402;2022-10-16T03:12:41;100003.38;;;10.23;100.00
13869;BME280;7004;48.206;16.402;2022-10-16T03:15:09;100000.34;;;10.15;100.00
13869;BME280;7004;48.206;16.402;2022-10-16T03:17:35;99993.00;;;10.20;100.00
13869;BME280;7004;48.206;16.402;2022-10-16T03:20:01;99998.75;;;10.27;100.00
13869;BME280;7004;48.206;16.402;2022-10-16T03:22:28;100007.59;;;10.27;100.00
13869;BME280;7004;48.206;16.402;2022-10-16T03:24:54;100015.50;;;10.12;100.00
13869;BME280;7004;48.206;16.402;2022-10-16T03:27:20;100016.63;;;10.07;100.00
13869;BME280;7004;48.206;16.402;2022-10-16T03:29:46;100013.13;;;10.07;100.00
13869;BME280;7004;48.206;16.402;2022-10-16T03:32:13;100006.47;;;10.16;100.00
13869;BME280;7004;48.206;16.402;2022-10-16T03:34:39;100017.53;;;10.22;100.00
13869;BME280;7004;48.206;16.402;2022-10-16T03:37:05;100020.00;;;10.25;100.00
13869;BME280;7004;48.206;16.402;2022-10-16T03:39:31;100029.81;;;10.23;100.00
13869;BME280;7004;48.206;16.402;2022-10-16T03:41:57;100021.41;;;10.33;100.00
13869;BME280;7004;48.206;16.402;2022-10-16T03:44:23;100026.25;;;10.40;100.00
13869;BME280;7004;48.206;16.402;2022-10-16T03:46:49;100031.19;;;10.31;100.00
13869;BME280;7004;48.206;16.402;2022-10-16T03:49:15;100033.91;;;10.29;100.00
13869;BME280;7004;48.206;16.402;2022-10-16T03:51:41;100039.72;;;10.20;100.00
13869;BME280;7004;48.206;16.402;2022-10-16T03:54:09;100038.50;;;10.25;100.00
13869;BME280;7004;48.206;16.402;2022-10-16T03:56:35;100042.78;;;10.28;100.00
13869;BME280;7004;48.206;16.402;2022-10-16T03:59:01;100044.28;;;10.16;100.00
13869;BME280;7004;48.206;16.402;2022-10-16T04:01:27;100053.66;;;10.22;100.00
13869;BME280;7004;48.206;16.402;2022-10-16T04:03:54;100056.16;;;10.25;100.00
13869;BME280;7004;48.206;16.402;2022-10-16T04:06:20;100053.94;;;10.17;100.00
13869;BME280;7004;48.206;16.402;2022-10-16T04:08:46;100044.41;;;10.15;100.00
13869;BME280;7004;48.206;16.402;2022-10-16T04:11:12;100046.34;;;10.11;100.00
13869;BME280;7004;48.206;16.402;2022-10-16T04:13:38;100043.28;;;10.35;100.00
13869;BME280;7004;48.206;16.402;2022-10-16T04:16:05;100026.53;;;10.50;100.00
13869;BME280;7004;48.206;16.402;2022-10-16T04:18:31;100026.09;;;10.58;100.00
13869;BME280;7004;48.206;16.402;2022-10-16T04:21:05;100028.28;;;10.65;100.00
13869;BME280;7004;48.206;16.402;2022-10-16T04:23:32;100042.59;;;10.31;100.00
13869;BME280;7004;48.206;16.402;2022-10-16T04:25:59;100049.06;;;10.41;100.00
13869;BME280;7004;48.206;16.402;2022-10-16T04:28:26;100049.59;;;10.32;100.00
13869;BME280;7004;48.206;16.402;2022-10-16T04:30:52;100044.47;;;10.29;100.00
13869;BME280;7004;48.206;16.402;2022-10-16T04:33:18;100054.13;;;10.30;100.00
13869;BME280;7004;48.206;16.402;2022-10-16T04:35:44;100044.22;;;10.18;100.00
13869;BME280;7004;48.206;16.402;2022-10-16T04:38:11;100040.22;;;10.11;100.00
13869;BME280;7004;48.206;16.402;2022-10-16T04:40:37;100043.28;;;10.19;100.00
13869;BME280;7004;48.206;16.402;2022-10-16T04:43:04;100062.97;;;10.13;100.00
13869;BME280;7004;48.206;16.402;2022-10-16T04:45:30;100060.50;;;10.10;100.00
13869;BME280;7004;48.206;16.402;2022-10-16T04:48:00;100053.06;;;10.01;100.00
13869;BME280;7004;48.206;16.402;2022-10-16T04:50:26;100061.34;;;9.95;100.00
13869;BME280;7004;48.206;16.402;2022-10-16T04:52:52;100062.44;;;9.91;100.00
13869;BME280;7004;48.206;16.402;2022-10-16T04:55:19;100072.44;;;10.01;100.00
13869;BME280;7004;48.206;16.402;2022-10-16T04:57:45;100067.22;;;10.00;100.00
13869;BME280;7004;48.206;16.402;2022-10-16T05:00:11;100068.19;;;9.99;100.00
13869;BME280;7004;48.206;16.402;2022-10-16T05:02:37;100075.41;;;10.11;100.00
13869;BME280;7004;48.206;16.402;2022-10-16T05:05:04;100070.72;;;10.16;100.00
13869;BME280;7004;48.206;16.402;2022-10-16T05:07:30;100066.88;;;10.06;100.00
13869;BME280;7004;48.206;16.402;2022-10-16T05:09:56;100076.78;;;10.02;100.00
13869;BME280;7004;48.206;16.402;2022-10-16T05:12:22;100079.31;;;9.88;100.00
13869;BME280;7004;48.206;16.402;2022-10-16T05:14:49;100077.53;;;9.89;100.00
13869;BME280;7004;48.206;16.402;2022-10-16T05:17:15;100073.72;;;9.94;100.00
13869;BME280;7004;48.206;16.402;2022-10-16T05:19:41;100076.75;;;10.18;100.00
13869;BME280;7004;48.206;16.402;2022-10-16T05:22:07;100093.56;;;10.17;100.00
13869;BME280;7004;48.206;16.402;2022-10-16T05:24:34;100098.06;;;10.15;100.00
13869;BME280;7004;48.206;16.402;2022-10-16T05:27:01;100096.81;;;10.22;100.00
13869;BME280;7004;48.206;16.402;2022-10-16T05:29:27;100100.97;;;10.11;100.00
13869;BME280;7004;48.206;16.402;2022-10-16T05:31:53;100106.78;;;10.49;100.00
13869;BME280;7004;48.206;16.402;2022-10-16T05:34:21;100104.97;;;10.49;100.00
13869;BME280;7004;48.206;16.402;2022-10-16T05:36:47;100101.66;;;10.46;100.00
13869;BME280;7004;48.206;16.402;2022-10-16T05:39:15;100099.69;;;10.49;100.00
13869;BME280;7004;48.206;16.402;2022-10-16T05:41:42;100103.44;;;10.61;100.00
13869;BME280;7004;48.206;16.402;2022-10-16T05:44:08;100098.75;;;10.66;100.00
13869;BME280;7004;48.206;16.402;2022-10-16T05:46:34;100106.06;;;10.91;100.00
13869;BME280;7004;48.206;16.402;2022-10-16T05:49:01;100120.19;;;10.76;100.00
13869;BME280;7004;48.206;16.402;2022-10-16T05:51:26;100120.00;;;10.95;100.00
13869;BME280;7004;48.206;16.402;2022-10-16T05:53:53;100120.50;;;10.86;100.00
13869;BME280;7004;48.206;16.402;2022-10-16T05:56:19;100122.78;;;10.92;100.00
13869;BME280;7004;48.206;16.402;2022-10-16T05:58:45;100125.34;;;10.93;100.00
13869;BME280;7004;48.206;16.402;2022-10-16T06:01:15;100128.50;;;11.00;100.00
13869;BME280;7004;48.206;16.402;2022-10-16T06:03:42;100126.91;;;10.98;100.00
13869;BME280;7004;48.206;16.402;2022-10-16T06:06:14;100136.00;;;11.08;100.00
13869;BME280;7004;48.206;16.402;2022-10-16T06:08:41;100146.44;;;10.95;100.00
13869;BME280;7004;48.206;16.402;2022-10-16T06:11:12;100154.06;;;11.15;100.00
13869;BME280;7004;48.206;16.402;2022-10-16T06:13:38;100150.84;;;11.10;100.00
13869;BME280;7004;48.206;16.402;2022-10-16T06:16:08;100150.06;;;11.08;100.00
13869;BME280;7004;48.206;16.402;2022-10-16T06:18:35;100146.41;;;11.11;100.00
13869;BME280;7004;48.206;16.402;2022-10-16T06:21:24;100144.09;;;11.05;100.00
13869;BME280;7004;48.206;16.402;2022-10-16T06:23:52;100156.88;;;11.12;100.00
13869;BME280;7004;48.206;16.402;2022-10-16T06:26:21;100165.44;;;11.32;100.00
13869;BME280;7004;48.206;16.402;2022-10-16T06:28:48;100171.88;;;11.42;100.00
13869;BME280;7004;48.206;16.402;2022-10-16T06:31:16;100176.03;;;11.46;100.00
13869;BME280;7004;48.206;16.402;2022-10-16T06:33:43;100181.72;;;11.10;100.00
13869;BME280;7004;48.206;16.402;2022-10-16T06:36:14;100188.91;;;11.08;100.00
13869;BME280;7004;48.206;16.402;2022-10-16T06:38:42;100187.28;;;11.05;100.00
13869;BME280;7004;48.206;16.402;2022-10-16T06:41:12;100189.94;;;10.89;100.00
13869;BME280;7004;48.206;16.402;2022-10-16T06:43:39;100188.31;;;10.87;100.00
13869;BME280;7004;48.206;16.402;2022-10-16T06:46:09;100196.94;;;10.90;100.00
13869;BME280;7004;48.206;16.402;2022-10-16T06:48:36;100190.81;;;10.58;100.00
13869;BME280;7004;48.206;16.402;2022-10-16T06:53:32;100195.88;;;11.09;100.00
13869;BME280;7004;48.206;16.402;2022-10-16T06:56:11;100201.53;;;11.03;100.00
13869;BME280;7004;48.206;16.402;2022-10-16T06:58:38;100201.91;;;11.27;100.00
13869;BME280;7004;48.206;16.402;2022-10-16T07:01:05;100218.94;;;11.07;100.00
13869;BME280;7004;48.206;16.402;2022-10-16T07:03:32;100228.59;;;11.08;100.00
13869;BME280;7004;48.206;16.402;2022-10-16T07:06:05;100217.09;;;11.23;100.00
13869;BME280;7004;48.206;16.402;2022-10-16T07:08:33;100226.56;;;11.27;100.00
13869;BME280;7004;48.206;16.402;2022-10-16T07:11:06;100221.91;;;11.17;100.00
13869;BME280;7004;48.206;16.402;2022-10-16T07:13:37;100224.19;;;11.23;100.00
13869;BME280;7004;48.206;16.402;2022-10-16T07:16:12;100223.88;;;11.43;100.00
13869;BME280;7004;48.206;16.402;2022-10-16T07:18:39;100220.50;;;11.55;100.00
13869;BME280;7004;48.206;16.402;2022-10-16T07:21:14;100226.56;;;11.57;100.00
13869;BME280;7004;48.206;16.402;2022-10-16T07:23:42;100231.38;;;11.51;100.00
13869;BME280;7004;48.206;16.402;2022-10-16T07:26:09;100231.19;;;11.54;100.00
13869;BME280;7004;48.206;16.402;2022-10-16T07:28:37;100226.66;;;11.26;100.00
13869;BME280;7004;48.206;16.402;2022-10-16T07:31:06;100235.88;;;11.49;100.00
13869;BME280;7004;48.206;16.402;2022-10-16T07:33:34;100232.78;;;11.56;100.00
13869;BME280;7004;48.206;16.402;2022-10-16T07:36:01;100217.94;;;11.54;100.00
13869;BME280;7004;48.206;16.402;2022-10-16T07:38:27;100224.97;;;11.55;100.00
13869;BME280;7004;48.206;16.402;2022-10-16T07:40:58;100227.69;;;11.53;100.00
13869;BME280;7004;48.206;16.402;2022-10-16T07:43:26;100234.91;;;11.80;100.00
13869;BME280;7004;48.206;16.402;2022-10-16T07:45:52;100235.34;;;11.88;100.00
13869;BME280;7004;48.206;16.402;2022-10-16T07:48:19;100226.84;;;11.97;100.00
13869;BME280;7004;48.206;16.402;2022-10-16T07:50:45;100227.59;;;11.99;100.00
13869;BME280;7004;48.206;16.402;2022-10-16T07:53:12;100237.63;;;11.64;100.00
13869;BME280;7004;48.206;16.402;2022-10-16T07:55:39;100237.94;;;11.74;100.00
13869;BME280;7004;48.206;16.402;2022-10-16T07:58:06;100240.84;;;11.69;100.00
13869;BME280;7004;48.206;16.402;2022-10-16T08:00:33;100242.16;;;11.62;100.00
13869;BME280;7004;48.206;16.402;2022-10-16T08:02:59;100245.03;;;11.73;100.00
13869;BME280;7004;48.206;16.402;2022-10-16T08:05:31;100253.25;;;11.69;100.00
13869;BME280;7004;48.206;16.402;2022-10-16T08:07:57;100257.13;;;11.77;100.00
13869;BME280;7004;48.206;16.402;2022-10-16T08:10:26;100253.97;;;11.87;100.00
13869;BME280;7004;48.206;16.402;2022-10-16T08:12:53;100259.00;;;11.91;100.00
13869;BME280;7004;48.206;16.402;2022-10-16T08:15:20;100266.69;;;11.80;100.00
13869;BME280;7004;48.206;16.402;2022-10-16T08:18:01;100260.94;;;11.73;100.00
13869;BME280;7004;48.206;16.402;2022-10-16T08:20:29;100267.56;;;11.80;100.00
13869;BME280;7004;48.206;16.402;2022-10-16T08:22:56;100266.63;;;11.81;100.00
13869;BME280;7004;48.206;16.402;2022-10-16T08:25:23;100270.25;;;11.95;100.00
13869;BME280;7004;48.206;16.402;2022-10-16T08:27:50;100279.63;;;11.86;100.00
13869;BME280;7004;48.206;16.402;2022-10-16T08:30:18;100276.06;;;12.01;100.00
13869;BME280;7004;48.206;16.402;2022-10-16T08:32:45;100273.44;;;11.86;100.00
13869;BME280;7004;48.206;16.402;2022-10-16T08:35:12;100274.16;;;12.18;100.00
13869;BME280;7004;48.206;16.402;2022-10-16T08:37:40;100286.09;;;12.25;100.00
13869;BME280;7004;48.206;16.402;2022-10-16T08:40:20;100281.06;;;12.20;100.00
13869;BME280;7004;48.206;16.402;2022-10-16T08:46:15;100289.00;;;12.06;100.00
13869;BME280;7004;48.206;16.402;2022-10-16T08:48:48;100282.03;;;12.19;100.00
13869;BME280;7004;48.206;16.402;2022-10-16T08:51:24;100279.84;;;12.40;100.00
13869;BME280;7004;48.206;16.402;2022-10-16T08:54:03;100284.22;;;12.27;100.00
13869;BME280;7004;48.206;16.402;2022-10-16T08:56:30;100288.47;;;12.30;100.00
13869;BME280;7004;48.206;16.402;2022-10-16T08:58:59;100290.59;;;12.09;100.00
13869;BME280;7004;48.206;16.402;2022-10-16T09:01:45;100292.25;;;12.26;100.00
13869;BME280;7004;48.206;16.402;2022-10-16T09:04:52;100292.03;;;12.57;100.00
13869;BME280;7004;48.206;16.402;2022-10-16T09:08:02;100282.69;;;12.52;100.00
13869;BME280;7004;48.206;16.402;2022-10-16T09:11:04;100288.81;;;12.52;100.00
13869;BME280;7004;48.206;16.402;2022-10-16T09:14:00;100291.94;;;12.44;100.00
13869;BME280;7004;48.206;16.402;2022-10-16T09:16:38;100294.06;;;12.25;100.00
13869;BME280;7004;48.206;16.402;2022-10-16T09:19:31;100292.25;;;12.54;100.00
13869;BME280;7004;48.206;16.402;2022-10-16T09:22:08;100294.03;;;12.39;100.00
13869;BME280;7004;48.206;16.402;2022-10-16T09:24:36;100298.94;;;12.60;100.00
13869;BME280;7004;48.206;16.402;2022-10-16T09:27:02;100297.91;;;12.62;100.00
13869;BME280;7004;48.206;16.402;2022-10-16T09:29:29;100310.50;;;12.44;100.00
13869;BME280;7004;48.206;16.402;2022-10-16T09:31:55;100300.00;;;12.57;100.00
13869;BME280;7004;48.206;16.402;2022-10-16T09:34:36;100312.22;;;12.45;100.00
13869;BME280;7004;48.206;16.402;2022-10-16T09:37:11;100323.78;;;12.44;100.00
13869;BME280;7004;48.206;16.402;2022-10-16T09:39:54;100309.38;;;12.77;100.00
13869;BME280;7004;48.206;16.402;2022-10-16T09:42:27;100316.66;;;12.59;100.00
13869;BME280;7004;48.206;16.402;2022-10-16T09:44:56;100321.66;;;12.93;100.00
13869;BME280;7004;48.206;16.402;2022-10-16T09:47:28;100329.53;;;12.65;100.00
13869;BME280;7004;48.206;16.402;2022-10-16T09:50:01;100328.97;;;12.75;100.00
13869;BME280;7004;48.206;16.402;2022-10-16T09:52:29;100334.84;;;12.65;100.00
13869;BME280;7004;48.206;16.402;2022-10-16T09:55:02;100329.50;;;12.94;100.00
13869;BME280;7004;48.206;16.402;2022-10-16T09:57:29;100323.81;;;13.00;100.00
13869;BME280;7004;48.206;16.402;2022-10-16T10:00:08;100322.00;;;13.01;100.00
13869;BME280;7004;48.206;16.402;2022-10-16T10:02:37;100320.16;;;13.30;100.00
13869;BME280;7004;48.206;16.402;2022-10-16T10:05:22;100320.50;;;13.38;100.00
13869;BME280;7004;48.206;16.402;2022-10-16T10:08:14;100333.59;;;13.41;100.00
13869;BME280;7004;48.206;16.402;2022-10-16T10:10:48;100329.69;;;13.47;100.00
13869;BME280;7004;48.206;16.402;2022-10-16T10:13:21;100330.25;;;13.52;100.00
13869;BME280;7004;48.206;16.402;2022-10-16T10:15:50;100325.47;;;13.57;100.00
13869;BME280;7004;48.206;16.402;2022-10-16T10:18:21;100331.91;;;13.93;100.00
13869;BME280;7004;48.206;16.402;2022-10-16T10:21:00;100331.63;;;14.10;100.00
13869;BME280;7004;48.206;16.402;2022-10-16T10:23:29;100329.56;;;13.75;100.00
13869;BME280;7004;48.206;16.402;2022-10-16T10:26:20;100334.19;;;14.12;100.00
13869;BME280;7004;48.206;16.402;2022-10-16T10:29:01;100331.75;;;14.09;100.00
13869;BME280;7004;48.206;16.402;2022-10-16T10:32:07;100332.69;;;14.08;100.00
13869;BME280;7004;48.206;16.402;2022-10-16T10:38:06;100334.50;;;14.46;100.00
13869;BME280;7004;48.206;16.402;2022-10-16T10:41:01;100328.00;;;14.37;100.00
13869;BME280;7004;48.206;16.402;2022-10-16T10:50:07;100304.78;;;15.98;100.00
13869;BME280;7004;48.206;16.402;2022-10-16T10:55:50;100311.16;;;16.42;100.00
13869;BME280;7004;48.206;16.402;2022-10-16T11:01:16;100310.19;;;16.76;100.00
13869;BME280;7004;48.206;16.402;2022-10-16T11:06:50;100301.91;;;17.78;100.00
13869;BME280;7004;48.206;16.402;2022-10-16T11:09:34;100303.72;;;17.56;100.00
13869;BME280;7004;48.206;16.402;2022-10-16T11:12:26;100301.47;;;17.61;100.00
13869;BME280;7004;48.206;16.402;2022-10-16T11:15:23;100296.94;;;17.73;99.44
13869;BME280;7004;48.206;16.402;2022-10-16T11:18:04;100284.50;;;18.04;100.00
13869;BME280;7004;48.206;16.402;2022-10-16T11:21:02;100282.31;;;18.40;97.51
13869;BME280;7004;48.206;16.402;2022-10-16T11:23:52;100281.91;;;18.75;96.10
13869;BME280;7004;48.206;16.402;2022-10-16T11:26:25;100282.31;;;18.40;98.34
13869;BME280;7004;48.206;16.402;2022-10-16T11:28:55;100292.97;;;18.30;99.48
13869;BME280;7004;48.206;16.402;2022-10-16T11:37:38;100273.34;;;17.78;100.00
13869;BME280;7004;48.206;16.402;2022-10-16T11:40:24;100284.78;;;17.48;100.00
13869;BME280;7004;48.206;16.402;2022-10-16T11:43:22;100275.38;;;18.07;100.00
13869;BME280;7004;48.206;16.402;2022-10-16T11:45:57;100277.56;;;18.23;100.00
13869;BME280;7004;48.206;16.402;2022-10-16T11:51:42;100273.09;;;18.02;100.00
13869;BME280;7004;48.206;16.402;2022-10-16T11:54:37;100274.69;;;18.36;100.00
13869;BME280;7004;48.206;16.402;2022-10-16T11:57:39;100281.59;;;17.86;100.00
13869;BME280;7004;48.206;16.402;2022-10-16T12:00:10;100281.97;;;17.82;100.00
13869;BME280;7004;48.206;16.402;2022-10-16T12:06:15;100277.31;;;18.05;100.00
13869;BME280;7004;48.206;16.402;2022-10-16T12:08:50;100283.16;;;17.89;100.00
13869;BME280;7004;48.206;16.402;2022-10-16T12:16:58;100272.50;;;18.20;100.00
13869;BME280;7004;48.206;16.402;2022-10-16T12:19:28;100271.34;;;18.43;100.00
13869;BME280;7004;48.206;16.402;2022-10-16T12:22:01;100278.72;;;17.99;100.00
13869;BME280;7004;48.206;16.402;2022-10-16T12:24:38;100277.31;;;18.05;100.00
13869;BME280;7004;48.206;16.402;2022-10-16T12:27:25;100264.06;;;18.24;100.00
13869;BME280;7004;48.206;16.402;2022-10-16T12:30:03;100265.84;;;18.14;100.00
13869;BME280;7004;48.206;16.402;2022-10-16T12:32:37;100257.09;;;18.12;100.00
13869;BME280;7004;48.206;16.402;2022-10-16T12:35:19;100257.63;;;18.37;100.00
13869;BME280;7004;48.206;16.402;2022-10-16T12:37:47;100248.56;;;18.59;99.25
13869;BME280;7004;48.206;16.402;2022-10-16T12:40:35;100256.44;;;18.50;98.94
13869;BME280;7004;48.206;16.402;2022-10-16T12:46:05;100263.47;;;18.51;100.00
13869;BME280;7004;48.206;16.402;2022-10-16T12:48:31;100264.47;;;18.81;99.08
13869;BME280;7004;48.206;16.402;2022-10-16T12:51:08;100265.31;;;19.01;99.30
13869;BME280;7004;48.206;16.402;2022-10-16T12:53:35;100273.34;;;18.82;98.79
13869;BME280;7004;48.206;16.402;2022-10-16T12:56:25;100268.69;;;18.93;97.50
13869;BME280;7004;48.206;16.402;2022-10-16T13:08:05;100264.09;;;19.25;94.68
13869;BME280;7004;48.206;16.402;2022-10-16T13:22:33;100257.44;;;19.97;87.84
13869;BME280;7004;48.206;16.402;2022-10-16T13:25:44;100264.94;;;19.93;87.33
13869;BME280;7004;48.206;16.402;2022-10-16T13:28:13;100271.00;;;19.66;88.19
13869;BME280;7004;48.206;16.402;2022-10-16T13:30:53;100263.94;;;19.84;88.69
13869;BME280;7004;48.206;16.402;2022-10-16T13:33:42;100272.72;;;19.77;86.25
13869;BME280;7004;48.206;16.402;2022-10-16T13:36:24;100270.53;;;20.00;85.77
13869;BME280;7004;48.206;16.402;2022-10-16T13:39:30;100280.63;;;19.78;85.92
13869;BME280;7004;48.206;16.402;2022-10-16T13:42:24;100277.22;;;19.76;86.94
13869;BME280;7004;48.206;16.402;2022-10-16T13:44:54;100291.59;;;19.56;89.65
13869;BME280;7004;48.206;16.402;2022-10-16T13:47:27;100286.41;;;19.54;89.08
13869;BME280;7004;48.206;16.402;2022-10-16T13:50:08;100284.72;;;19.43;90.76
13869;BME280;7004;48.206;16.402;2022-10-16T13:52:36;100281.03;;;19.45;90.17
13869;BME280;7004;48.206;16.402;2022-10-16T13:55:15;100287.09;;;19.37;93.08
13869;BME280;7004;48.206;16.402;2022-10-16T13:57:42;100280.88;;;19.27;94.84
13869;BME280;7004;48.206;16.402;2022-10-16T14:00:24;100280.03;;;19.26;94.25
13869;BME280;7004;48.206;16.402;2022-10-16T14:02:57;100276.34;;;19.08;94.88
13869;BME280;7004;48.206;16.402;2022-10-16T14:05:26;100277.06;;;19.29;93.05
13869;BME280;7004;48.206;16.402;2022-10-16T14:07:54;100279.47;;;19.32;91.51
13869;BME280;7004;48.206;16.402;2022-10-16T14:10:31;100276.34;;;19.27;93.68
13869;BME280;7004;48.206;16.402;2022-10-16T14:13:13;100273.13;;;19.33;94.08
13869;BME280;7004;48.206;16.402;2022-10-16T14:15:50;100282.41;;;19.10;95.11
13869;BME280;7004;48.206;16.402;2022-10-16T14:18:24;100275.34;;;19.09;96.42
13869;BME280;7004;48.206;16.402;2022-10-16T14:20:51;100272.81;;;19.07;96.08
13869;BME280;7004;48.206;16.402;2022-10-16T14:23:41;100269.75;;;19.31;90.37
13869;BME280;7004;48.206;16.402;2022-10-16T14:28:37;100272.13;;;19.15;90.19
13869;BME280;7004;48.206;16.402;2022-10-16T14:31:33;100273.25;;;19.32;87.04
13869;BME280;7004;48.206;16.402;2022-10-16T14:34:02;100276.94;;;19.31;86.74